createdAt,value
2019-03-28T00:00:51.059Z,275.46
2019-03-28T00:02:21.135Z,275.46
2019-03-28T00:03:50.979Z,275.52
2019-03-28T00:05:22.734Z,275.52
2019-03-28T00:06:51.532Z,275.59
2019-03-28T00:08:20.252Z,275.52
2019-03-28T00:09:50.173Z,275.46
2019-03-28T00:11:18.974Z,275.52
2019-03-28T00:12:49.297Z,275.52
2019-03-28T00:14:18.338Z,275.52
2019-03-28T00:15:47.614Z,275.52
2019-03-28T00:17:16.342Z,275.52
2019-03-28T00:18:45.063Z,275.52
2019-03-28T00:20:16.288Z,275.52
2019-03-28T00:21:45.212Z,275.52
2019-03-28T00:23:13.941Z,275.52
2019-03-28T00:24:42.653Z,275.52
2019-03-28T00:26:11.458Z,275.59
2019-03-28T00:27:55.617Z,275.59
2019-03-28T00:30:54.254Z,275.71
2019-03-28T00:32:22.977Z,275.71
2019-03-28T00:33:51.775Z,275.71
2019-03-28T00:35:21.374Z,275.77
2019-03-28T00:36:52.021Z,275.77
2019-03-28T00:38:21.779Z,275.77
2019-03-28T00:39:50.661Z,275.77
2019-03-28T00:41:20.148Z,275.84
2019-03-28T00:42:48.894Z,275.84
2019-03-28T00:44:17.773Z,275.77
2019-03-28T00:45:46.497Z,275.77
2019-03-28T00:47:15.213Z,275.77
2019-03-28T00:48:44.976Z,275.77
2019-03-28T00:50:14.575Z,275.84
2019-03-28T00:51:44.577Z,275.84
2019-03-28T00:53:14.573Z,275.9
2019-03-28T00:54:43.298Z,275.84
2019-03-28T00:56:12.975Z,275.9
2019-03-28T00:57:41.692Z,275.9
2019-03-28T00:59:10.414Z,275.9
2019-03-28T01:00:39.135Z,275.9
2019-03-28T01:02:07.857Z,275.9
2019-03-28T01:03:36.655Z,275.96
2019-03-28T01:05:05.373Z,275.96
2019-03-28T01:06:34.254Z,275.96
2019-03-28T01:08:03.014Z,276.02
2019-03-28T01:09:32.579Z,276.09
2019-03-28T01:11:01.376Z,276.02
2019-03-28T01:12:32.659Z,276.02
2019-03-28T01:14:01.456Z,275.96
2019-03-28T01:15:31.133Z,275.96
2019-03-28T01:16:59.856Z,275.96
2019-03-28T01:18:29.055Z,276.02
2019-03-28T01:19:57.853Z,276.09
2019-03-28T01:21:26.579Z,276.02
2019-03-28T01:22:55.295Z,276.02
2019-03-28T01:24:24.096Z,276.09
2019-03-28T01:25:53.706Z,276.09
2019-03-28T01:27:24.832Z,276.15
2019-03-28T01:28:54.816Z,276.15
2019-03-28T01:30:25.461Z,276.15
2019-03-28T01:31:55.137Z,276.15
2019-03-28T01:33:24.015Z,276.21
2019-03-28T01:34:53.620Z,276.15
2019-03-28T01:36:24.264Z,276.15
2019-03-28T01:37:52.977Z,276.15
2019-03-28T01:39:23.459Z,276.15
2019-03-28T01:40:52.180Z,276.15
2019-03-28T01:42:20.895Z,276.15
2019-03-28T01:43:49.613Z,276.15
2019-03-28T01:45:18.414Z,276.15
2019-03-28T01:46:47.133Z,276.21
2019-03-28T01:48:15.856Z,276.21
2019-03-28T01:49:46.749Z,276.21
2019-03-28T01:51:15.775Z,276.15
2019-03-28T01:52:44.497Z,276.15
2019-03-28T01:54:14.974Z,276.09
2019-03-28T01:55:43.698Z,276.15
2019-03-28T01:57:13.456Z,276.15
2019-03-28T01:58:42.495Z,276.21
2019-03-28T02:00:11.550Z,276.27
2019-03-28T02:01:41.942Z,276.21
2019-03-28T02:03:11.300Z,276.21
2019-03-28T02:04:40.899Z,276.27
2019-03-28T02:06:10.497Z,276.27
2019-03-28T02:07:39.375Z,276.27
2019-03-28T02:09:08.201Z,276.27
2019-03-28T02:10:36.895Z,276.27
2019-03-28T02:12:06.338Z,276.27
2019-03-28T02:13:35.828Z,276.27
2019-03-28T02:15:04.498Z,276.27
2019-03-28T02:16:33.215Z,276.27
2019-03-28T02:18:03.775Z,276.27
2019-03-28T02:19:33.459Z,276.27
2019-03-28T02:21:02.177Z,276.27
2019-03-28T02:22:33.536Z,276.27
2019-03-28T02:24:03.539Z,276.34
2019-03-28T02:25:32.337Z,276.27
2019-03-28T02:27:03.435Z,276.27
2019-03-28T02:28:32.095Z,276.27
2019-03-28T02:30:00.814Z,276.27
2019-03-28T02:31:29.625Z,276.21
2019-03-28T02:32:58.338Z,276.21
2019-03-28T02:34:28.019Z,276.21
2019-03-28T02:35:58.024Z,276.21
2019-03-28T02:37:27.861Z,276.21
2019-03-28T02:38:58.559Z,276.21
2019-03-28T02:40:28.504Z,276.21
2019-03-28T02:41:57.299Z,276.27
2019-03-28T02:43:26.098Z,276.27
2019-03-28T02:44:55.854Z,276.27
2019-03-28T02:46:25.061Z,276.27
2019-03-28T02:47:54.743Z,276.27
2019-03-28T02:49:23.627Z,276.27
2019-03-28T02:50:52.343Z,276.27
2019-03-28T02:52:23.869Z,276.21
2019-03-28T02:53:53.458Z,276.27
2019-03-28T02:55:22.181Z,276.27
2019-03-28T02:56:52.734Z,276.27
2019-03-28T02:58:22.336Z,276.27
2019-03-28T02:59:54.629Z,276.27
2019-03-28T03:01:29.813Z,276.27
2019-03-28T03:03:03.379Z,276.21
2019-03-28T03:04:33.087Z,276.21
2019-03-28T03:06:04.420Z,276.27
2019-03-28T03:07:33.375Z,276.27
2019-03-28T03:09:03.069Z,276.27
2019-03-28T03:10:32.740Z,276.27
2019-03-28T03:12:01.620Z,276.27
2019-03-28T03:13:31.215Z,276.34
2019-03-28T03:15:00.977Z,276.27
2019-03-28T03:16:29.782Z,276.27
2019-03-28T03:17:58.739Z,276.27
2019-03-28T03:19:27.936Z,276.27
2019-03-28T03:20:58.416Z,276.34
2019-03-28T03:22:28.863Z,276.34
2019-03-28T03:23:59.059Z,276.34
2019-03-28T03:25:27.781Z,276.34
2019-03-28T03:26:56.500Z,276.34
2019-03-28T03:28:25.296Z,276.34
2019-03-28T03:29:54.974Z,276.4
2019-03-28T03:31:25.142Z,276.4
2019-03-28T03:32:55.217Z,276.46
2019-03-28T03:34:25.958Z,276.52
2019-03-28T03:35:57.941Z,276.52
2019-03-28T03:37:26.815Z,276.46
2019-03-28T03:38:56.109Z,276.46
2019-03-28T03:40:24.817Z,276.46
2019-03-28T03:41:54.415Z,276.4
2019-03-28T03:43:23.470Z,276.46
2019-03-28T03:44:52.415Z,276.46
2019-03-28T03:46:21.216Z,276.46
2019-03-28T03:47:51.293Z,276.4
2019-03-28T03:49:20.982Z,276.46
2019-03-28T03:50:49.774Z,276.46
2019-03-28T03:52:18.495Z,276.46
2019-03-28T03:53:47.376Z,276.46
2019-03-28T03:55:16.100Z,276.46
2019-03-28T03:56:45.774Z,276.46
2019-03-28T03:58:16.506Z,276.52
2019-03-28T03:59:45.385Z,276.52
2019-03-28T04:01:14.257Z,276.52
2019-03-28T04:02:43.139Z,276.52
2019-03-28T04:04:12.016Z,276.52
2019-03-28T04:05:41.855Z,276.59
2019-03-28T04:07:12.500Z,276.59
2019-03-28T04:08:41.300Z,276.59
2019-03-28T04:10:11.136Z,276.59
2019-03-28T04:11:40.100Z,276.59
2019-03-28T04:13:10.667Z,276.59
2019-03-28T04:14:39.623Z,276.59
2019-03-28T04:16:08.421Z,276.59
2019-03-28T04:17:37.297Z,276.59
2019-03-28T04:19:06.109Z,276.59
2019-03-28T04:20:34.899Z,276.65
2019-03-28T04:22:03.697Z,276.59
2019-03-28T04:23:34.015Z,276.59
2019-03-28T04:25:02.738Z,276.59
2019-03-28T04:26:31.789Z,276.59
2019-03-28T04:28:00.902Z,276.59
2019-03-28T04:29:30.543Z,276.59
2019-03-28T04:30:59.297Z,276.59
2019-03-28T04:32:28.024Z,276.52
2019-03-28T04:33:56.738Z,276.52
2019-03-28T04:35:33.697Z,276.59
2019-03-28T04:37:02.498Z,276.59
2019-03-28T04:38:32.098Z,276.59
2019-03-28T04:40:00.818Z,276.59
2019-03-28T04:41:29.780Z,276.59
2019-03-28T04:42:59.409Z,276.52
2019-03-28T04:44:29.058Z,276.59
2019-03-28T04:45:58.747Z,276.59
2019-03-28T04:47:28.340Z,276.59
2019-03-28T04:48:57.937Z,276.59
2019-03-28T04:50:26.739Z,276.59
2019-03-28T04:51:55.537Z,276.59
2019-03-28T04:53:24.255Z,276.59
2019-03-28T04:54:53.616Z,276.59
2019-03-28T04:56:22.336Z,276.59
2019-03-28T04:57:51.055Z,276.65
2019-03-28T04:59:20.657Z,276.65
2019-03-28T05:00:50.419Z,276.65
2019-03-28T05:02:19.306Z,276.71
2019-03-28T05:03:48.013Z,276.71
2019-03-28T05:05:16.802Z,276.65
2019-03-28T05:06:46.501Z,276.71
2019-03-28T05:08:15.293Z,276.71
2019-03-28T05:09:44.097Z,276.71
2019-03-28T05:11:12.899Z,276.71
2019-03-28T05:12:41.622Z,276.71
2019-03-28T05:14:11.298Z,276.77
2019-03-28T05:15:41.386Z,276.77
2019-03-28T05:17:10.181Z,276.77
2019-03-28T05:18:39.775Z,276.77
2019-03-28T05:20:08.574Z,276.77
2019-03-28T05:21:38.893Z,276.77
2019-03-28T05:23:07.698Z,276.77
2019-03-28T05:24:36.421Z,276.84
2019-03-28T05:26:05.140Z,276.84
2019-03-28T05:27:33.855Z,276.84
2019-03-28T05:29:03.457Z,276.9
2019-03-28T05:30:32.175Z,276.9
2019-03-28T05:32:00.898Z,276.9
2019-03-28T05:33:29.613Z,276.96
2019-03-28T05:34:58.418Z,276.96
2019-03-28T05:36:27.217Z,276.96
2019-03-28T05:37:56.898Z,276.96
2019-03-28T05:39:27.380Z,277.02
2019-03-28T05:40:56.173Z,277.02
2019-03-28T05:42:25.857Z,277.02
2019-03-28T05:43:54.573Z,277.02
2019-03-28T05:45:23.376Z,277.09
2019-03-28T05:46:52.096Z,277.09
2019-03-28T05:48:22.335Z,277.09
2019-03-28T05:49:52.014Z,277.09
2019-03-28T05:51:20.818Z,277.09
2019-03-28T05:52:49.695Z,277.15
2019-03-28T05:54:18.495Z,277.15
2019-03-28T05:55:47.218Z,277.21
2019-03-28T05:57:16.820Z,277.15
2019-03-28T05:58:45.617Z,277.21
2019-03-28T06:00:14.341Z,277.21
2019-03-28T06:01:43.081Z,277.27
2019-03-28T06:03:16.408Z,277.27
2019-03-28T06:04:46.173Z,277.27
2019-03-28T06:06:16.817Z,277.34
2019-03-28T06:07:47.376Z,277.34
2019-03-28T06:09:24.319Z,277.4
2019-03-28T06:10:54.337Z,277.4
2019-03-28T06:12:26.419Z,277.46
2019-03-28T06:13:56.095Z,277.46
2019-03-28T06:15:26.574Z,277.52
2019-03-28T06:16:55.299Z,277.52
2019-03-28T06:18:25.386Z,277.59
2019-03-28T06:19:56.101Z,277.59
2019-03-28T06:21:26.028Z,277.59
2019-03-28T06:22:55.535Z,277.65
2019-03-28T06:24:24.415Z,277.65
2019-03-28T06:25:53.216Z,277.71
2019-03-28T06:27:22.014Z,277.71
2019-03-28T06:28:51.351Z,277.71
2019-03-28T06:30:20.338Z,277.71
2019-03-28T06:31:54.937Z,277.71
2019-03-28T06:33:25.215Z,277.77
2019-03-28T06:34:54.893Z,277.77
2019-03-28T06:36:26.465Z,277.77
2019-03-28T06:37:55.472Z,277.77
2019-03-28T06:39:24.175Z,277.77
2019-03-28T06:40:52.975Z,277.84
2019-03-28T06:42:22.096Z,277.9
2019-03-28T06:43:50.898Z,277.9
2019-03-28T06:45:19.614Z,277.96
2019-03-28T06:46:48.334Z,278.02
2019-03-28T06:48:17.135Z,277.96
2019-03-28T06:49:46.815Z,278.02
2019-03-28T06:51:17.137Z,278.09
2019-03-28T06:52:46.458Z,278.09
2019-03-28T06:54:16.092Z,278.15
2019-03-28T06:55:48.252Z,278.21
2019-03-28T06:57:18.896Z,278.21
2019-03-28T06:58:47.693Z,278.21
2019-03-28T07:00:16.496Z,278.21
2019-03-28T07:01:45.414Z,278.27
2019-03-28T07:03:14.979Z,278.27
2019-03-28T07:04:44.658Z,278.34
2019-03-28T07:06:13.475Z,278.34
2019-03-28T07:07:42.737Z,278.4
2019-03-28T07:09:12.413Z,278.4
2019-03-28T07:10:43.295Z,278.46
2019-03-28T07:12:13.934Z,278.46
2019-03-28T07:13:44.496Z,278.46
2019-03-28T07:15:13.297Z,278.52
2019-03-28T07:16:42.895Z,278.52
2019-03-28T07:18:11.620Z,278.59
2019-03-28T07:19:41.459Z,278.65
2019-03-28T07:21:10.173Z,278.65
2019-03-28T07:22:38.903Z,278.71
2019-03-28T07:24:10.907Z,278.71
2019-03-28T07:25:40.574Z,278.77
2019-03-28T07:27:10.893Z,278.84
2019-03-28T07:28:39.695Z,278.84
2019-03-28T07:30:08.494Z,278.9
2019-03-28T07:31:37.218Z,278.96
2019-03-28T07:33:05.933Z,279.02
2019-03-28T07:34:34.657Z,279.09
2019-03-28T07:36:03.373Z,279.15
2019-03-28T07:37:32.093Z,279.21
2019-03-28T07:39:01.532Z,279.27
2019-03-28T07:40:33.198Z,279.34
2019-03-28T07:42:02.977Z,279.4
2019-03-28T07:43:31.694Z,279.46
2019-03-28T07:45:00.974Z,279.52
2019-03-28T07:46:29.693Z,279.59
2019-03-28T07:47:58.495Z,279.65
2019-03-28T07:49:27.214Z,279.71
2019-03-28T07:50:56.026Z,279.77
2019-03-28T07:52:24.739Z,279.84
2019-03-28T07:53:53.452Z,279.9
2019-03-28T07:55:22.174Z,279.96
2019-03-28T07:56:50.973Z,280.02
2019-03-28T07:58:19.782Z,280.15
2019-03-28T07:59:48.493Z,280.21
2019-03-28T08:01:29.216Z,280.34
2019-03-28T08:02:58.487Z,280.34
2019-03-28T08:04:27.403Z,280.46
2019-03-28T08:05:56.172Z,280.59
2019-03-28T08:07:24.975Z,280.71
2019-03-28T08:08:53.694Z,280.65
2019-03-28T08:10:23.774Z,280.77
2019-03-28T08:11:52.578Z,280.84
2019-03-28T08:13:21.776Z,280.9
2019-03-28T08:14:54.095Z,280.96
2019-03-28T08:16:22.818Z,280.96
2019-03-28T08:17:52.994Z,281.02
2019-03-28T08:19:21.864Z,281.09
2019-03-28T08:20:50.895Z,281.09
2019-03-28T08:22:20.574Z,281.09
2019-03-28T08:23:49.457Z,281.09
2019-03-28T08:25:18.214Z,281.09
2019-03-28T08:26:47.135Z,281.21
2019-03-28T08:28:15.938Z,281.27
2019-03-28T08:29:45.377Z,281.34
2019-03-28T08:31:14.915Z,281.34
2019-03-28T08:32:43.694Z,281.4
2019-03-28T08:34:12.747Z,281.52
2019-03-28T08:35:43.617Z,281.46
2019-03-28T08:37:13.219Z,281.59
2019-03-28T08:38:42.817Z,281.71
2019-03-28T08:40:26.609Z,281.84
2019-03-28T08:41:55.379Z,281.84
2019-03-28T08:43:24.094Z,281.84
2019-03-28T08:44:52.813Z,281.9
2019-03-28T08:46:22.498Z,282.09
2019-03-28T08:47:51.375Z,282.09
2019-03-28T08:49:20.096Z,282.15
2019-03-28T08:50:48.848Z,282.21
2019-03-28T08:52:17.533Z,282.21
2019-03-28T08:53:46.360Z,282.27
2019-03-28T08:55:15.151Z,282.34
2019-03-28T08:56:43.857Z,282.46
2019-03-28T08:58:12.666Z,282.59
2019-03-28T08:59:42.418Z,282.9
2019-03-28T09:01:13.142Z,282.96
2019-03-28T09:02:41.947Z,283.09
2019-03-28T09:04:10.659Z,283.09
2019-03-28T09:05:39.621Z,283.27
2019-03-28T09:07:08.504Z,283.4
2019-03-28T09:08:38.264Z,283.4
2019-03-28T09:10:07.071Z,283.4
2019-03-28T09:11:36.828Z,283.4
2019-03-28T09:13:06.547Z,283.4
2019-03-28T09:14:35.462Z,283.52
2019-03-28T09:16:04.264Z,283.59
2019-03-28T09:17:32.980Z,283.65
2019-03-28T09:19:02.021Z,283.65
2019-03-28T09:20:30.820Z,283.65
2019-03-28T09:21:59.702Z,283.65
2019-03-28T09:23:28.506Z,283.71
2019-03-28T09:24:57.423Z,283.77
2019-03-28T09:26:26.184Z,283.77
2019-03-28T09:27:55.073Z,283.84
2019-03-28T09:29:24.666Z,283.9
2019-03-28T09:30:53.462Z,283.84
2019-03-28T09:32:22.502Z,283.77
2019-03-28T09:33:51.308Z,283.77
2019-03-28T09:35:20.186Z,283.77
2019-03-28T09:36:48.904Z,283.77
2019-03-28T09:38:17.622Z,283.77
2019-03-28T09:39:46.344Z,283.84
2019-03-28T09:41:15.070Z,283.84
2019-03-28T09:42:43.947Z,283.9
2019-03-28T09:44:12.749Z,283.96
2019-03-28T09:45:41.471Z,284.02
2019-03-28T09:47:11.154Z,284.02
2019-03-28T09:48:40.035Z,284.09
2019-03-28T09:50:08.744Z,284.15
2019-03-28T09:51:37.710Z,284.21
2019-03-28T09:53:06.508Z,284.15
2019-03-28T09:54:35.626Z,284.15
2019-03-28T09:56:04.345Z,284.15
2019-03-28T09:57:33.065Z,284.15
2019-03-28T09:59:01.786Z,284.21
2019-03-28T10:00:32.851Z,284.27
2019-03-28T10:02:02.332Z,284.46
2019-03-28T10:03:31.300Z,284.4
2019-03-28T10:05:01.060Z,284.34
2019-03-28T10:06:30.738Z,284.46
2019-03-28T10:08:01.219Z,284.27
2019-03-28T10:09:29.950Z,284.27
2019-03-28T10:10:59.860Z,284.34
2019-03-28T10:12:30.338Z,284.4
2019-03-28T10:13:59.065Z,284.46
2019-03-28T10:15:27.776Z,284.59
2019-03-28T10:16:57.376Z,284.59
2019-03-28T10:18:29.926Z,284.34
2019-03-28T10:20:00.658Z,284.15
2019-03-28T10:21:29.704Z,284.15
2019-03-28T10:23:02.416Z,284.15
2019-03-28T10:24:31.137Z,284.15
2019-03-28T10:26:00.895Z,284.46
2019-03-28T10:27:31.454Z,284.59
2019-03-28T10:29:00.655Z,284.65
2019-03-28T10:30:29.380Z,284.77
2019-03-28T10:31:58.092Z,284.84
2019-03-28T10:33:26.815Z,284.84
2019-03-28T10:34:55.532Z,285.02
2019-03-28T10:36:27.563Z,285.21
2019-03-28T10:37:56.415Z,285.27
2019-03-28T10:39:25.151Z,284.96
2019-03-28T10:40:53.859Z,285.15
2019-03-28T10:42:22.654Z,285.4
2019-03-28T10:43:52.257Z,285.59
2019-03-28T10:45:21.141Z,285.59
2019-03-28T10:46:51.612Z,285.59
2019-03-28T10:48:23.338Z,285.46
2019-03-28T10:49:54.014Z,285.27
2019-03-28T10:51:22.894Z,285.21
2019-03-28T10:52:52.497Z,285.21
2019-03-28T10:54:21.290Z,285.15
2019-03-28T10:55:50.174Z,285.09
2019-03-28T10:57:29.205Z,285.15
2019-03-28T10:58:58.650Z,285.09
2019-03-28T11:00:27.451Z,285.21
2019-03-28T11:01:56.350Z,285.15
2019-03-28T11:03:25.131Z,284.9
2019-03-28T11:04:54.331Z,284.77
2019-03-28T11:06:23.134Z,284.65
2019-03-28T11:07:51.857Z,284.84
2019-03-28T11:09:20.652Z,284.96
2019-03-28T11:10:51.137Z,285.02
2019-03-28T11:12:20.574Z,285.09
2019-03-28T11:13:49.395Z,285.02
2019-03-28T11:15:18.094Z,284.71
2019-03-28T11:16:48.298Z,284.65
2019-03-28T11:18:17.304Z,284.77
2019-03-28T11:19:46.157Z,284.71
2019-03-28T11:21:15.213Z,284.84
2019-03-28T11:22:44.014Z,284.71
2019-03-28T11:24:13.138Z,284.65
2019-03-28T11:25:43.293Z,284.59
2019-03-28T11:27:12.015Z,284.52
2019-03-28T11:28:40.834Z,284.59
2019-03-28T11:30:09.693Z,284.52
2019-03-28T11:31:46.772Z,284.71
2019-03-28T11:33:17.135Z,284.59
2019-03-28T11:34:46.260Z,284.46
2019-03-28T11:36:14.977Z,284.46
2019-03-28T11:37:43.777Z,284.59
2019-03-28T11:39:12.491Z,284.59
2019-03-28T11:40:42.859Z,284.52
2019-03-28T11:44:04.497Z,284.46
2019-03-28T11:45:33.214Z,284.46
2019-03-28T11:47:02.014Z,284.46
2019-03-28T11:48:31.614Z,284.4
2019-03-28T11:50:00.418Z,284.46
2019-03-28T11:51:31.058Z,284.52
2019-03-28T11:53:01.214Z,284.59
2019-03-28T11:54:30.018Z,284.71
2019-03-28T11:55:58.735Z,284.71
2019-03-28T11:57:27.535Z,284.71
2019-03-28T11:58:57.135Z,284.71
2019-03-28T12:00:29.819Z,284.71
2019-03-28T12:02:00.433Z,284.84
2019-03-28T12:03:45.462Z,284.96
2019-03-28T12:05:14.253Z,285.09
2019-03-28T12:06:43.056Z,285.09
2019-03-28T12:08:15.862Z,285.15
2019-03-28T12:09:45.773Z,285.02
2019-03-28T12:11:15.378Z,285.09
2019-03-28T12:12:44.095Z,285.09
2019-03-28T12:14:13.053Z,285.09
2019-03-28T12:15:41.813Z,285.21
2019-03-28T12:17:10.953Z,285.15
2019-03-28T12:18:42.099Z,285.21
2019-03-28T12:20:11.551Z,285.34
2019-03-28T12:21:40.373Z,285.34
2019-03-28T12:23:10.197Z,285.27
2019-03-28T12:24:42.744Z,285.4
2019-03-28T12:26:11.473Z,285.46
2019-03-28T12:27:46.099Z,285.46
2019-03-28T12:29:34.176Z,285.71
2019-03-28T12:31:18.739Z,285.59
2019-03-28T12:32:49.382Z,285.84
2019-03-28T12:34:18.190Z,286.15
2019-03-28T12:35:48.743Z,286.21
2019-03-28T12:37:17.542Z,286.21
2019-03-28T12:38:46.341Z,286.34
2019-03-28T12:40:16.838Z,286.46
2019-03-28T12:41:45.537Z,286.4
2019-03-28T12:43:15.151Z,286.46
2019-03-28T12:44:56.243Z,286.59
2019-03-28T12:46:26.418Z,286.59
2019-03-28T12:47:56.097Z,286.46
2019-03-28T12:49:24.899Z,286.27
2019-03-28T12:50:58.898Z,286.15
2019-03-28T12:52:29.881Z,286.34
2019-03-28T12:53:58.750Z,286.09
2019-03-28T12:55:27.540Z,286.21
2019-03-28T12:56:58.221Z,286.15
2019-03-28T12:58:27.071Z,286.02
2019-03-28T12:59:55.782Z,286.09
2019-03-28T13:01:24.752Z,286.09
2019-03-28T13:02:53.464Z,285.96
2019-03-28T13:04:22.417Z,285.77
2019-03-28T13:05:51.214Z,285.77
2019-03-28T13:07:19.938Z,285.65
2019-03-28T13:08:49.535Z,285.65
2019-03-28T13:10:18.260Z,285.65
2019-03-28T13:11:47.217Z,285.9
2019-03-28T13:13:15.934Z,285.9
2019-03-28T13:14:45.693Z,285.84
2019-03-28T13:16:14.575Z,286.02
2019-03-28T13:17:43.378Z,286.15
2019-03-28T13:19:12.093Z,286.15
2019-03-28T13:20:41.778Z,286.15
2019-03-28T13:22:10.577Z,285.96
2019-03-28T13:23:39.300Z,286.02
2019-03-28T13:25:09.777Z,286.15
2019-03-28T13:26:39.534Z,286.02
2019-03-28T13:28:09.216Z,286.02
2019-03-28T13:29:39.703Z,286.15
2019-03-28T13:31:09.295Z,285.96
2019-03-28T13:32:41.888Z,286.09
2019-03-28T13:34:10.893Z,286.09
2019-03-28T13:35:39.693Z,286.09
2019-03-28T13:37:08.492Z,286.02
2019-03-28T13:38:37.294Z,286.02
2019-03-28T13:40:06.172Z,285.9
2019-03-28T13:41:34.976Z,285.9
2019-03-28T13:43:04.634Z,285.84
2019-03-28T13:44:33.629Z,285.77
2019-03-28T13:46:02.340Z,285.84
2019-03-28T13:47:31.364Z,285.9
2019-03-28T13:49:01.861Z,285.9
2019-03-28T13:50:30.662Z,285.96
2019-03-28T13:51:59.374Z,285.84
2019-03-28T13:53:38.627Z,285.84
2019-03-28T13:55:08.012Z,285.84
2019-03-28T13:56:38.573Z,285.77
2019-03-28T13:58:07.380Z,285.84
2019-03-28T13:59:37.777Z,285.84
2019-03-28T14:01:06.582Z,285.9
2019-03-28T14:02:35.295Z,285.9
2019-03-28T14:04:06.658Z,285.96
2019-03-28T14:05:35.373Z,285.9
2019-03-28T14:07:04.174Z,285.96
2019-03-28T14:08:32.896Z,285.9
2019-03-28T14:10:02.573Z,285.77
2019-03-28T14:11:32.267Z,285.77
2019-03-28T14:13:01.852Z,285.84
2019-03-28T14:14:30.740Z,286.09
2019-03-28T14:16:00.331Z,286.15
2019-03-28T14:17:29.219Z,286.15
2019-03-28T14:18:59.854Z,286.27
2019-03-28T14:20:28.572Z,286.21
2019-03-28T14:21:57.453Z,286.09
2019-03-28T14:23:26.208Z,286.09
2019-03-28T14:24:55.773Z,286.02
2019-03-28T14:26:25.531Z,285.96
2019-03-28T14:27:54.802Z,285.96
2019-03-28T14:29:23.532Z,285.84
2019-03-28T14:30:53.935Z,285.77
2019-03-28T14:32:24.890Z,285.71
2019-03-28T14:33:57.933Z,285.71
2019-03-28T14:35:26.816Z,285.65
2019-03-28T14:36:56.415Z,285.77
2019-03-28T14:38:25.453Z,285.71
2019-03-28T14:39:54.172Z,285.65
2019-03-28T14:41:23.135Z,285.59
2019-03-28T14:42:52.731Z,285.52
2019-03-28T14:44:21.453Z,285.52
2019-03-28T14:45:50.252Z,285.46
2019-03-28T14:47:19.139Z,285.52
2019-03-28T14:48:48.148Z,285.52
2019-03-28T14:50:18.461Z,285.4
2019-03-28T14:51:48.218Z,285.46
2019-03-28T14:53:16.897Z,285.52
2019-03-28T14:54:46.252Z,285.4
2019-03-28T14:56:14.978Z,285.4
2019-03-28T14:57:43.695Z,285.4
2019-03-28T14:59:12.413Z,285.34
2019-03-28T15:00:41.132Z,285.34
2019-03-28T15:02:12.016Z,285.27
2019-03-28T15:03:40.734Z,285.27
2019-03-28T15:05:09.626Z,285.27
2019-03-28T15:06:38.335Z,285.15
2019-03-28T15:08:07.055Z,285.15
2019-03-28T15:09:35.933Z,285.09
2019-03-28T15:11:05.537Z,285.21
2019-03-28T15:12:34.255Z,285.27
2019-03-28T15:14:03.303Z,285.21
2019-03-28T15:15:32.175Z,285.21
2019-03-28T15:17:00.984Z,285.27
2019-03-28T15:18:30.006Z,285.27
2019-03-28T15:19:58.977Z,285.34
2019-03-28T15:21:29.542Z,285.34
2019-03-28T15:22:58.338Z,285.34
2019-03-28T15:24:27.140Z,285.34
2019-03-28T15:25:55.858Z,285.34
2019-03-28T15:27:24.583Z,285.46
2019-03-28T15:28:53.869Z,285.46
2019-03-28T15:30:22.580Z,285.4
2019-03-28T15:31:52.198Z,285.4
2019-03-28T15:33:20.980Z,285.34
2019-03-28T15:35:04.819Z,285.21
2019-03-28T15:36:33.617Z,285.21
2019-03-28T15:38:06.018Z,285.27
2019-03-28T15:39:35.061Z,285.34
2019-03-28T15:41:04.657Z,285.4
2019-03-28T15:42:33.461Z,285.4
2019-03-28T15:44:02.340Z,285.4
2019-03-28T15:45:31.063Z,285.4
2019-03-28T15:46:59.776Z,285.4
2019-03-28T15:48:28.505Z,285.34
2019-03-28T15:49:57.296Z,285.4
2019-03-28T15:51:26.196Z,285.34
2019-03-28T15:52:55.059Z,285.4
2019-03-28T15:54:23.777Z,285.34
2019-03-28T15:55:52.501Z,285.21
2019-03-28T15:57:22.346Z,285.15
2019-03-28T15:58:51.151Z,285.09
2019-03-28T16:00:19.856Z,285.09
2019-03-28T16:01:48.661Z,285.09
2019-03-28T16:03:18.737Z,285.02
2019-03-28T16:04:47.460Z,285.02
2019-03-28T16:06:16.338Z,284.96
2019-03-28T16:07:46.419Z,284.96
2019-03-28T16:09:18.166Z,284.96
2019-03-28T16:10:49.060Z,284.9
2019-03-28T16:12:19.619Z,284.9
2019-03-28T16:13:48.500Z,284.96
2019-03-28T16:15:18.262Z,284.96
2019-03-28T16:16:47.139Z,284.96
2019-03-28T16:18:17.619Z,284.9
2019-03-28T16:19:47.252Z,284.96
2019-03-28T16:21:16.029Z,284.96
2019-03-28T16:22:44.740Z,284.96
2019-03-28T16:24:13.544Z,284.9
2019-03-28T16:25:43.395Z,284.84
2019-03-28T16:27:12.181Z,284.9
2019-03-28T16:28:41.543Z,284.9
2019-03-28T16:30:10.745Z,284.84
2019-03-28T16:31:40.582Z,284.84
2019-03-28T16:33:09.304Z,284.84
2019-03-28T16:34:38.027Z,284.84
2019-03-28T16:36:07.463Z,284.77
2019-03-28T16:37:36.263Z,284.77
2019-03-28T16:39:04.995Z,284.77
2019-03-28T16:40:34.663Z,284.84
2019-03-28T16:42:05.383Z,284.84
2019-03-28T16:43:34.421Z,284.77
2019-03-28T16:45:03.145Z,284.77
2019-03-28T16:46:32.827Z,284.71
2019-03-28T16:48:01.547Z,284.77
2019-03-28T16:49:31.226Z,284.71
2019-03-28T16:50:59.948Z,284.71
2019-03-28T16:52:28.667Z,284.71
2019-03-28T16:53:58.347Z,284.71
2019-03-28T16:55:28.174Z,284.65
2019-03-28T16:56:58.193Z,284.65
2019-03-28T16:58:26.910Z,284.65
2019-03-28T16:59:57.547Z,284.59
2019-03-28T17:01:27.145Z,284.52
2019-03-28T17:02:55.950Z,284.52
2019-03-28T17:04:24.666Z,284.52
2019-03-28T17:05:53.467Z,284.52
2019-03-28T17:07:23.228Z,284.46
2019-03-28T17:08:52.826Z,284.46
2019-03-28T17:10:22.509Z,284.4
2019-03-28T17:11:52.675Z,284.4
2019-03-28T17:13:21.387Z,284.4
2019-03-28T17:14:50.121Z,284.34
2019-03-28T17:16:19.789Z,284.27
2019-03-28T17:17:50.270Z,284.21
2019-03-28T17:19:19.871Z,284.15
2019-03-28T17:20:48.750Z,284.15
2019-03-28T17:22:17.494Z,284.15
2019-03-28T17:23:46.193Z,284.15
2019-03-28T17:25:15.076Z,284.15
2019-03-28T17:26:43.796Z,284.09
2019-03-28T17:28:12.500Z,284.02
2019-03-28T17:29:41.298Z,284.02
2019-03-28T17:31:10.052Z,284.02
2019-03-28T17:32:38.885Z,283.96
2019-03-28T17:34:07.867Z,283.96
2019-03-28T17:35:36.656Z,283.9
2019-03-28T17:37:06.335Z,283.9
2019-03-28T17:38:35.778Z,283.9
2019-03-28T17:40:08.582Z,283.9
2019-03-28T17:41:37.292Z,283.9
2019-03-28T17:43:06.981Z,283.84
2019-03-28T17:44:35.699Z,283.77
2019-03-28T17:46:04.410Z,283.77
2019-03-28T17:47:36.465Z,283.77
2019-03-28T17:49:05.854Z,283.77
2019-03-28T17:50:35.768Z,283.65
2019-03-28T17:52:05.368Z,283.65
2019-03-28T17:53:34.970Z,283.59
2019-03-28T17:55:04.582Z,283.59
2019-03-28T17:56:33.367Z,283.59
2019-03-28T17:58:02.100Z,283.59
2019-03-28T17:59:30.808Z,283.46
2019-03-28T18:00:59.528Z,283.46
2019-03-28T18:02:28.252Z,283.4
2019-03-28T18:03:56.971Z,283.4
2019-03-28T18:05:25.773Z,283.4
2019-03-28T18:06:54.598Z,283.34
2019-03-28T18:08:25.374Z,283.34
2019-03-28T18:09:54.106Z,283.34
2019-03-28T18:11:23.054Z,283.34
2019-03-28T18:12:51.774Z,283.4
2019-03-28T18:14:20.658Z,283.34
2019-03-28T18:15:49.536Z,283.34
2019-03-28T18:17:19.135Z,283.27
2019-03-28T18:18:48.094Z,283.27
2019-03-28T18:20:18.573Z,283.34
2019-03-28T18:21:48.173Z,283.34
2019-03-28T18:23:28.016Z,283.27
2019-03-28T18:24:57.135Z,283.27
2019-03-28T18:26:26.104Z,283.21
2019-03-28T18:27:56.093Z,283.21
2019-03-28T18:29:24.991Z,283.15
2019-03-28T18:30:53.773Z,283.15
2019-03-28T18:32:22.499Z,283.15
2019-03-28T18:33:52.172Z,283.15
2019-03-28T18:35:20.898Z,283.21
2019-03-28T18:36:50.098Z,283.21
2019-03-28T18:38:18.903Z,283.09
2019-03-28T18:39:47.893Z,283.09
2019-03-28T18:41:16.575Z,283.09
2019-03-28T18:42:45.305Z,283.09
2019-03-28T18:44:14.100Z,283.02
2019-03-28T18:45:43.856Z,283.09